sensor_id;sensor_type;location;lat;lon;timestamp;pressure;altitude;pressure_sealevel;temperature;humidity
64053;BME280;50299;49.524;8.536;2024-02-23T00:02:10;98335.44;;;5.28;56.61
64053;BME280;50299;49.524;8.536;2024-02-23T00:04:36;98334.97;;;5.26;57.40
64053;BME280;50299;49.524;8.536;2024-02-23T00:07:03;98340.47;;;5.13;57.08
64053;BME280;50299;49.524;8.536;2024-02-23T00:09:30;98360.91;;;4.91;57.55
64053;BME280;50299;49.524;8.536;2024-02-23T00:11:56;98362.44;;;4.80;58.34
64053;BME280;50299;49.524;8.536;2024-02-23T00:14:23;98361.47;;;4.85;58.59
64053;BME280;50299;49.524;8.536;2024-02-23T00:16:49;98375.25;;;4.88;59.01
64053;BME280;50299;49.524;8.536;2024-02-23T00:19:16;98366.31;;;4.67;58.32
64053;BME280;50299;49.524;8.536;2024-02-23T00:21:44;98376.63;;;4.82;58.93
64053;BME280;50299;49.524;8.536;2024-02-23T00:24:16;98385.97;;;4.69;59.25
64053;BME280;50299;49.524;8.536;2024-02-23T00:26:43;98378.88;;;4.68;59.76
64053;BME280;50299;49.524;8.536;2024-02-23T00:29:10;98392.88;;;4.54;59.24
64053;BME280;50299;49.524;8.536;2024-02-23T00:31:40;98390.09;;;4.42;59.13
64053;BME280;50299;49.524;8.536;2024-02-23T00:34:07;98376.34;;;4.17;58.69
64053;BME280;50299;49.524;8.536;2024-02-23T00:36:41;98389.81;;;4.23;59.28
64053;BME280;50299;49.524;8.536;2024-02-23T00:39:08;98369.06;;;4.22;59.46
64053;BME280;50299;49.524;8.536;2024-02-23T00:41:35;98402.78;;;4.13;59.04
64053;BME280;50299;49.524;8.536;2024-02-23T00:44:03;98419.53;;;3.91;59.80
64053;BME280;50299;49.524;8.536;2024-02-23T00:46:29;98416.31;;;3.89;60.22
64053;BME280;50299;49.524;8.536;2024-02-23T00:48:56;98416.72;;;4.00;60.22
64053;BME280;50299;49.524;8.536;2024-02-23T00:51:23;98411.00;;;3.92;60.09
64053;BME280;50299;49.524;8.536;2024-02-23T00:53:49;98422.06;;;3.96;60.64
64053;BME280;50299;49.524;8.536;2024-02-23T00:56:15;98421.59;;;3.94;60.06
64053;BME280;50299;49.524;8.536;2024-02-23T00:58:42;98422.44;;;3.86;59.97
64053;BME280;50299;49.524;8.536;2024-02-23T01:01:08;98422.41;;;3.95;60.10
64053;BME280;50299;49.524;8.536;2024-02-23T01:03:35;98417.25;;;3.93;60.85
64053;BME280;50299;49.524;8.536;2024-02-23T01:06:02;98411.28;;;3.79;60.59
64053;BME280;50299;49.524;8.536;2024-02-23T01:08:28;98404.59;;;3.67;60.16
64053;BME280;50299;49.524;8.536;2024-02-23T01:10:55;98412.28;;;3.74;60.43
64053;BME280;50299;49.524;8.536;2024-02-23T01:13:21;98410.84;;;3.68;60.80
64053;BME280;50299;49.524;8.536;2024-02-23T01:15:48;98431.63;;;3.60;60.92
64053;BME280;50299;49.524;8.536;2024-02-23T01:18:16;98446.81;;;3.49;61.08
64053;BME280;50299;49.524;8.536;2024-02-23T01:20:42;98454.03;;;3.54;61.35
64053;BME280;50299;49.524;8.536;2024-02-23T01:23:09;98461.41;;;3.53;62.07
64053;BME280;50299;49.524;8.536;2024-02-23T01:25:35;98457.88;;;3.53;61.39
64053;BME280;50299;49.524;8.536;2024-02-23T01:28:02;98468.00;;;3.52;61.64
64053;BME280;50299;49.524;8.536;2024-02-23T01:30:29;98483.78;;;3.47;61.99
64053;BME280;50299;49.524;8.536;2024-02-23T01:32:56;98472.97;;;3.59;61.58
64053;BME280;50299;49.524;8.536;2024-02-23T01:35:22;98480.25;;;3.76;61.73
64053;BME280;50299;49.524;8.536;2024-02-23T01:37:49;98495.75;;;3.92;61.56
64053;BME280;50299;49.524;8.536;2024-02-23T01:40:15;98521.69;;;4.07;61.16
64053;BME280;50299;49.524;8.536;2024-02-23T01:42:42;98558.97;;;3.91;61.71
64053;BME280;50299;49.524;8.536;2024-02-23T01:45:08;98562.69;;;3.86;62.64
64053;BME280;50299;49.524;8.536;2024-02-23T01:47:35;98566.25;;;3.78;62.98
64053;BME280;50299;49.524;8.536;2024-02-23T01:50:02;98557.13;;;3.74;62.44
64053;BME280;50299;49.524;8.536;2024-02-23T01:52:29;98552.50;;;3.66;61.78
64053;BME280;50299;49.524;8.536;2024-02-23T01:54:56;98557.03;;;3.62;62.18
64053;BME280;50299;49.524;8.536;2024-02-23T01:57:23;98558.66;;;3.54;61.69
64053;BME280;50299;49.524;8.536;2024-02-23T02:00:11;98556.22;;;3.53;62.00
64053;BME280;50299;49.524;8.536;2024-02-23T02:02:39;98554.38;;;3.36;61.73
64053;BME280;50299;49.524;8.536;2024-02-23T02:05:06;98555.69;;;3.21;61.50
64053;BME280;50299;49.524;8.536;2024-02-23T02:07:34;98561.34;;;2.99;61.18
64053;BME280;50299;49.524;8.536;2024-02-23T02:10:00;98554.59;;;3.13;62.13
64053;BME280;50299;49.524;8.536;2024-02-23T02:12:28;98563.28;;;2.98;62.00
64053;BME280;50299;49.524;8.536;2024-02-23T02:14:55;98561.53;;;2.93;62.30
64053;BME280;50299;49.524;8.536;2024-02-23T02:17:41;98548.22;;;2.92;61.64
64053;BME280;50299;49.524;8.536;2024-02-23T02:20:11;98552.72;;;2.79;61.71
64053;BME280;50299;49.524;8.536;2024-02-23T02:22:40;98552.72;;;2.88;62.14
64053;BME280;50299;49.524;8.536;2024-02-23T02:25:07;98560.75;;;2.84;61.57
64053;BME280;50299;49.524;8.536;2024-02-23T02:27:34;98555.16;;;2.72;61.96
64053;BME280;50299;49.524;8.536;2024-02-23T02:30:00;98554.16;;;2.77;62.11
64053;BME280;50299;49.524;8.536;2024-02-23T02:32:27;98559.63;;;2.77;62.65
64053;BME280;50299;49.524;8.536;2024-02-23T02:34:53;98557.53;;;2.65;62.58
64053;BME280;50299;49.524;8.536;2024-02-23T02:37:20;98565.41;;;2.75;62.89
64053;BME280;50299;49.524;8.536;2024-02-23T02:39:47;98565.72;;;2.82;62.99
64053;BME280;50299;49.524;8.536;2024-02-23T02:42:13;98558.31;;;2.83;62.60
64053;BME280;50299;49.524;8.536;2024-02-23T02:44:40;98559.63;;;2.85;62.97
64053;BME280;50299;49.524;8.536;2024-02-23T02:47:09;98569.59;;;2.73;63.40
64053;BME280;50299;49.524;8.536;2024-02-23T02:49:39;98552.56;;;2.76;62.96
64053;BME280;50299;49.524;8.536;2024-02-23T02:52:06;98574.72;;;2.74;63.80
64053;BME280;50299;49.524;8.536;2024-02-23T02:54:34;98580.00;;;2.70;63.27
64053;BME280;50299;49.524;8.536;2024-02-23T02:57:01;98586.59;;;2.69;63.15
64053;BME280;50299;49.524;8.536;2024-02-23T02:59:27;98583.69;;;2.57;63.45
64053;BME280;50299;49.524;8.536;2024-02-23T03:01:54;98580.97;;;2.66;64.67
64053;BME280;50299;49.524;8.536;2024-02-23T03:04:21;98579.53;;;2.77;64.33
64053;BME280;50299;49.524;8.536;2024-02-23T03:06:48;98586.41;;;3.01;63.92
64053;BME280;50299;49.524;8.536;2024-02-23T03:09:14;98581.88;;;3.13;63.58
64053;BME280;50299;49.524;8.536;2024-02-23T03:11:40;98592.97;;;3.00;62.49
64053;BME280;50299;49.524;8.536;2024-02-23T03:14:07;98592.38;;;2.85;63.06
64053;BME280;50299;49.524;8.536;2024-02-23T03:16:34;98589.13;;;2.83;62.57
64053;BME280;50299;49.524;8.536;2024-02-23T03:19:03;98580.31;;;2.78;62.77
64053;BME280;50299;49.524;8.536;2024-02-23T03:21:30;98585.16;;;2.81;61.89
64053;BME280;50299;49.524;8.536;2024-02-23T03:23:56;98576.34;;;2.75;61.66
64053;BME280;50299;49.524;8.536;2024-02-23T03:26:23;98579.69;;;2.89;61.92
64053;BME280;50299;49.524;8.536;2024-02-23T03:28:50;98579.06;;;2.84;61.42
64053;BME280;50299;49.524;8.536;2024-02-23T03:31:16;98577.75;;;2.90;60.56
64053;BME280;50299;49.524;8.536;2024-02-23T03:33:42;98584.50;;;2.84;61.05
64053;BME280;50299;49.524;8.536;2024-02-23T03:36:09;98579.88;;;2.67;61.08
64053;BME280;50299;49.524;8.536;2024-02-23T03:38:37;98589.16;;;2.49;61.80
64053;BME280;50299;49.524;8.536;2024-02-23T03:41:09;98570.69;;;2.54;61.44
64053;BME280;50299;49.524;8.536;2024-02-23T03:43:36;98579.84;;;2.58;61.83
64053;BME280;50299;49.524;8.536;2024-02-23T03:46:06;98575.38;;;2.71;62.15
64053;BME280;50299;49.524;8.536;2024-02-23T03:48:32;98586.13;;;2.76;61.67
64053;BME280;50299;49.524;8.536;2024-02-23T03:50:59;98560.78;;;2.67;61.59
64053;BME280;50299;49.524;8.536;2024-02-23T03:53:25;98579.38;;;2.74;61.19
64053;BME280;50299;49.524;8.536;2024-02-23T03:55:52;98569.09;;;2.62;61.56
64053;BME280;50299;49.524;8.536;2024-02-23T03:58:18;98579.03;;;2.58;61.39
64053;BME280;50299;49.524;8.536;2024-02-23T04:00:45;98581.31;;;2.56;62.37
64053;BME280;50299;49.524;8.536;2024-02-23T04:03:11;98580.50;;;2.64;61.51
64053;BME280;50299;49.524;8.536;2024-02-23T04:05:37;98575.22;;;2.59;61.75
64053;BME280;50299;49.524;8.536;2024-02-23T04:08:04;98571.50;;;2.37;62.29
64053;BME280;50299;49.524;8.536;2024-02-23T04:10:32;98579.22;;;2.35;62.53
64053;BME280;50299;49.524;8.536;2024-02-23T04:12:58;98590.59;;;2.37;62.67
64053;BME280;50299;49.524;8.536;2024-02-23T04:15:25;98592.84;;;2.44;62.58
64053;BME280;50299;49.524;8.536;2024-02-23T04:17:51;98582.91;;;2.31;62.26
64053;BME280;50299;49.524;8.536;2024-02-23T04:20:18;98593.81;;;2.31;63.02
64053;BME280;50299;49.524;8.536;2024-02-23T04:22:45;98601.38;;;2.42;62.49
64053;BME280;50299;49.524;8.536;2024-02-23T04:25:12;98603.56;;;2.23;63.02
64053;BME280;50299;49.524;8.536;2024-02-23T04:27:41;98607.44;;;2.22;63.54
64053;BME280;50299;49.524;8.536;2024-02-23T04:30:10;98612.06;;;2.22;62.82
64053;BME280;50299;49.524;8.536;2024-02-23T04:32:38;98606.59;;;2.22;63.42
64053;BME280;50299;49.524;8.536;2024-02-23T04:35:05;98616.22;;;2.19;63.87
64053;BME280;50299;49.524;8.536;2024-02-23T04:37:31;98628.06;;;2.06;63.56
64053;BME280;50299;49.524;8.536;2024-02-23T04:40:01;98623.78;;;2.13;63.24
64053;BME280;50299;49.524;8.536;2024-02-23T04:42:28;98622.13;;;2.12;63.24
64053;BME280;50299;49.524;8.536;2024-02-23T04:44:54;98625.19;;;2.02;63.27
64053;BME280;50299;49.524;8.536;2024-02-23T04:47:21;98627.56;;;2.04;63.55
64053;BME280;50299;49.524;8.536;2024-02-23T04:49:47;98625.56;;;1.78;63.49
64053;BME280;50299;49.524;8.536;2024-02-23T04:52:15;98619.31;;;1.78;62.83
64053;BME280;50299;49.524;8.536;2024-02-23T04:54:42;98617.75;;;1.85;62.33
64053;BME280;50299;49.524;8.536;2024-02-23T04:57:09;98621.44;;;1.89;62.96
64053;BME280;50299;49.524;8.536;2024-02-23T04:59:35;98617.28;;;1.92;63.25
64053;BME280;50299;49.524;8.536;2024-02-23T05:02:02;98615.88;;;2.03;62.74
64053;BME280;50299;49.524;8.536;2024-02-23T05:04:29;98606.19;;;1.88;62.27
64053;BME280;50299;49.524;8.536;2024-02-23T05:06:55;98615.16;;;1.80;62.41
64053;BME280;50299;49.524;8.536;2024-02-23T05:09:22;98618.91;;;1.93;63.63
64053;BME280;50299;49.524;8.536;2024-02-23T05:11:48;98609.63;;;2.03;63.39
64053;BME280;50299;49.524;8.536;2024-02-23T05:14:15;98614.44;;;2.06;63.25
64053;BME280;50299;49.524;8.536;2024-02-23T05:16:41;98612.53;;;2.15;62.72
64053;BME280;50299;49.524;8.536;2024-02-23T05:19:08;98601.97;;;2.13;62.76
64053;BME280;50299;49.524;8.536;2024-02-23T05:21:34;98603.22;;;2.16;62.38
64053;BME280;50299;49.524;8.536;2024-02-23T05:24:01;98609.31;;;2.13;62.08
64053;BME280;50299;49.524;8.536;2024-02-23T05:26:27;98605.63;;;2.17;61.94
64053;BME280;50299;49.524;8.536;2024-02-23T05:28:54;98610.44;;;2.12;62.49
64053;BME280;50299;49.524;8.536;2024-02-23T05:31:44;98613.03;;;2.26;63.10
64053;BME280;50299;49.524;8.536;2024-02-23T05:34:10;98617.34;;;2.09;62.44
64053;BME280;50299;49.524;8.536;2024-02-23T05:36:37;98616.22;;;2.10;62.72
64053;BME280;50299;49.524;8.536;2024-02-23T05:39:03;98620.06;;;2.09;62.99
64053;BME280;50299;49.524;8.536;2024-02-23T05:41:30;98617.84;;;2.29;63.43
64053;BME280;50299;49.524;8.536;2024-02-23T05:43:56;98618.66;;;2.38;62.89
64053;BME280;50299;49.524;8.536;2024-02-23T05:46:23;98630.25;;;2.52;62.72
64053;BME280;50299;49.524;8.536;2024-02-23T05:48:49;98637.78;;;2.55;62.27
64053;BME280;50299;49.524;8.536;2024-02-23T05:51:16;98638.25;;;2.57;61.93
64053;BME280;50299;49.524;8.536;2024-02-23T05:53:45;98650.00;;;2.92;62.58
64053;BME280;50299;49.524;8.536;2024-02-23T05:56:11;98642.78;;;2.79;62.02
64053;BME280;50299;49.524;8.536;2024-02-23T05:58:38;98645.81;;;2.95;62.16
64053;BME280;50299;49.524;8.536;2024-02-23T06:01:05;98647.13;;;2.72;61.85
64053;BME280;50299;49.524;8.536;2024-02-23T06:03:31;98647.13;;;2.80;61.65
64053;BME280;50299;49.524;8.536;2024-02-23T06:05:58;98660.44;;;2.82;62.31
64053;BME280;50299;49.524;8.536;2024-02-23T06:08:30;98665.25;;;2.93;62.09
64053;BME280;50299;49.524;8.536;2024-02-23T06:10:57;98664.09;;;3.03;61.67
64053;BME280;50299;49.524;8.536;2024-02-23T06:13:27;98673.28;;;2.81;61.18
64053;BME280;50299;49.524;8.536;2024-02-23T06:15:56;98672.94;;;2.74;61.56
64053;BME280;50299;49.524;8.536;2024-02-23T06:18:22;98672.81;;;2.97;60.95
64053;BME280;50299;49.524;8.536;2024-02-23T06:20:49;98676.16;;;3.11;61.37
64053;BME280;50299;49.524;8.536;2024-02-23T06:23:16;98665.75;;;3.04;60.72
64053;BME280;50299;49.524;8.536;2024-02-23T06:25:45;98672.31;;;3.03;60.58
64053;BME280;50299;49.524;8.536;2024-02-23T06:28:13;98673.59;;;2.88;61.71
64053;BME280;50299;49.524;8.536;2024-02-23T06:30:39;98665.59;;;2.92;61.19
64053;BME280;50299;49.524;8.536;2024-02-23T06:33:05;98671.66;;;2.80;61.12
64053;BME280;50299;49.524;8.536;2024-02-23T06:35:32;98677.44;;;2.79;60.85
64053;BME280;50299;49.524;8.536;2024-02-23T06:37:58;98676.47;;;2.75;61.72
64053;BME280;50299;49.524;8.536;2024-02-23T06:40:25;98676.78;;;2.73;61.17
64053;BME280;50299;49.524;8.536;2024-02-23T06:42:59;98680.78;;;2.58;61.30
64053;BME280;50299;49.524;8.536;2024-02-23T06:45:28;98680.78;;;2.58;61.93
64053;BME280;50299;49.524;8.536;2024-02-23T06:47:55;98694.56;;;2.53;61.66
64053;BME280;50299;49.524;8.536;2024-02-23T06:50:21;98692.47;;;2.50;61.35
64053;BME280;50299;49.524;8.536;2024-02-23T06:52:48;98683.63;;;2.36;61.68
64053;BME280;50299;49.524;8.536;2024-02-23T06:55:15;98682.22;;;2.38;61.63
64053;BME280;50299;49.524;8.536;2024-02-23T06:57:46;98673.53;;;2.45;61.05
64053;BME280;50299;49.524;8.536;2024-02-23T07:00:16;98679.50;;;2.47;60.87
64053;BME280;50299;49.524;8.536;2024-02-23T07:02:42;98675.94;;;2.38;60.86
64053;BME280;50299;49.524;8.536;2024-02-23T07:05:09;98678.88;;;2.59;60.72
64053;BME280;50299;49.524;8.536;2024-02-23T07:07:35;98684.16;;;2.47;60.20
64053;BME280;50299;49.524;8.536;2024-02-23T07:10:02;98677.06;;;2.45;59.89
64053;BME280;50299;49.524;8.536;2024-02-23T07:12:28;98671.78;;;2.49;60.81
64053;BME280;50299;49.524;8.536;2024-02-23T07:14:55;98680.13;;;2.53;60.38
64053;BME280;50299;49.524;8.536;2024-02-23T07:17:22;98674.06;;;2.56;59.69
64053;BME280;50299;49.524;8.536;2024-02-23T07:19:49;98680.47;;;2.51;59.67
64053;BME280;50299;49.524;8.536;2024-02-23T07:22:17;98678.19;;;2.36;59.86
64053;BME280;50299;49.524;8.536;2024-02-23T07:24:49;98681.38;;;2.38;59.96
64053;BME280;50299;49.524;8.536;2024-02-23T07:27:16;98686.78;;;2.20;59.09
64053;BME280;50299;49.524;8.536;2024-02-23T07:29:42;98684.56;;;2.23;59.38
64053;BME280;50299;49.524;8.536;2024-02-23T07:32:09;98684.06;;;2.20;60.19
64053;BME280;50299;49.524;8.536;2024-02-23T07:34:36;98676.06;;;2.24;60.09
64053;BME280;50299;49.524;8.536;2024-02-23T07:37:03;98697.28;;;2.36;59.60
64053;BME280;50299;49.524;8.536;2024-02-23T07:39:30;98694.72;;;2.48;59.14
64053;BME280;50299;49.524;8.536;2024-02-23T07:41:56;98693.91;;;2.39;58.98
64053;BME280;50299;49.524;8.536;2024-02-23T07:44:23;98704.34;;;2.45;59.00
64053;BME280;50299;49.524;8.536;2024-02-23T07:46:51;98702.78;;;2.70;59.60
64053;BME280;50299;49.524;8.536;2024-02-23T07:49:20;98709.09;;;2.80;58.03
64053;BME280;50299;49.524;8.536;2024-02-23T07:51:50;98701.06;;;3.01;58.03
64053;BME280;50299;49.524;8.536;2024-02-23T07:54:17;98704.59;;;3.10;56.88
64053;BME280;50299;49.524;8.536;2024-02-23T07:56:47;98703.88;;;3.82;57.11
64053;BME280;50299;49.524;8.536;2024-02-23T07:59:13;98704.84;;;4.75;53.84
64053;BME280;50299;49.524;8.536;2024-02-23T08:01:39;98719.78;;;5.28;52.79
64053;BME280;50299;49.524;8.536;2024-02-23T08:04:08;98721.34;;;5.83;50.89
64053;BME280;50299;49.524;8.536;2024-02-23T08:06:35;98721.75;;;6.06;50.77
64053;BME280;50299;49.524;8.536;2024-02-23T08:09:02;98720.06;;;5.69;50.04
64053;BME280;50299;49.524;8.536;2024-02-23T08:11:28;98733.06;;;5.59;49.07
64053;BME280;50299;49.524;8.536;2024-02-23T08:13:57;98733.06;;;5.59;51.01
64053;BME280;50299;49.524;8.536;2024-02-23T08:16:23;98734.56;;;5.36;50.81
64053;BME280;50299;49.524;8.536;2024-02-23T08:18:50;98742.06;;;5.27;50.40
64053;BME280;50299;49.524;8.536;2024-02-23T08:21:17;98735.44;;;5.07;51.07
64053;BME280;50299;49.524;8.536;2024-02-23T08:23:45;98743.84;;;5.02;51.31
64053;BME280;50299;49.524;8.536;2024-02-23T08:26:11;98735.97;;;4.71;52.15
64053;BME280;50299;49.524;8.536;2024-02-23T08:28:38;98736.22;;;4.57;52.49
64053;BME280;50299;49.524;8.536;2024-02-23T08:31:04;98732.34;;;4.58;51.59
64053;BME280;50299;49.524;8.536;2024-02-23T08:33:31;98731.84;;;4.56;51.29
64053;BME280;50299;49.524;8.536;2024-02-23T08:35:58;98723.94;;;4.63;51.92
64053;BME280;50299;49.524;8.536;2024-02-23T08:38:24;98733.16;;;4.79;54.35
64053;BME280;50299;49.524;8.536;2024-02-23T08:40:50;98727.31;;;4.68;52.64
64053;BME280;50299;49.524;8.536;2024-02-23T08:43:17;98725.31;;;4.48;52.25
64053;BME280;50299;49.524;8.536;2024-02-23T08:45:43;98716.78;;;4.50;52.29
64053;BME280;50299;49.524;8.536;2024-02-23T08:48:10;98718.88;;;4.74;52.48
64053;BME280;50299;49.524;8.536;2024-02-23T08:50:41;98721.03;;;4.89;52.77
64053;BME280;50299;49.524;8.536;2024-02-23T08:53:08;98711.47;;;4.74;52.19
64053;BME280;50299;49.524;8.536;2024-02-23T08:55:37;98716.94;;;4.74;51.92
64053;BME280;50299;49.524;8.536;2024-02-23T08:58:04;98715.91;;;4.87;51.93
64053;BME280;50299;49.524;8.536;2024-02-23T09:00:32;98710.44;;;5.08;53.51
64053;BME280;50299;49.524;8.536;2024-02-23T09:02:59;98708.44;;;4.97;51.48
64053;BME280;50299;49.524;8.536;2024-02-23T09:05:25;98709.84;;;5.03;51.68
64053;BME280;50299;49.524;8.536;2024-02-23T09:07:52;98702.88;;;4.84;51.04
64053;BME280;50299;49.524;8.536;2024-02-23T09:10:19;98699.75;;;5.15;51.94
64053;BME280;50299;49.524;8.536;2024-02-23T09:12:46;98696.47;;;5.43;50.91
64053;BME280;50299;49.524;8.536;2024-02-23T09:15:12;98702.03;;;5.68;50.62
64053;BME280;50299;49.524;8.536;2024-02-23T09:17:42;98692.81;;;5.84;49.32
64053;BME280;50299;49.524;8.536;2024-02-23T09:20:09;98683.91;;;6.12;49.39
64053;BME280;50299;49.524;8.536;2024-02-23T09:22:36;98686.09;;;6.68;48.64
64053;BME280;50299;49.524;8.536;2024-02-23T09:25:03;98683.19;;;7.29;49.63
64053;BME280;50299;49.524;8.536;2024-02-23T09:27:31;98674.94;;;7.57;46.65
64053;BME280;50299;49.524;8.536;2024-02-23T09:29:58;98677.44;;;7.62;45.81
64053;BME280;50299;49.524;8.536;2024-02-23T09:32:25;98675.28;;;7.55;45.35
64053;BME280;50299;49.524;8.536;2024-02-23T09:34:51;98668.22;;;7.70;46.45
64053;BME280;50299;49.524;8.536;2024-02-23T09:37:18;98669.13;;;7.90;45.24
64053;BME280;50299;49.524;8.536;2024-02-23T09:39:44;98683.50;;;8.31;45.29
64053;BME280;50299;49.524;8.536;2024-02-23T09:42:11;98681.38;;;8.40;44.48
64053;BME280;50299;49.524;8.536;2024-02-23T09:44:37;98691.56;;;8.55;46.74
64053;BME280;50299;49.524;8.536;2024-02-23T09:47:07;98686.16;;;8.94;44.18
64053;BME280;50299;49.524;8.536;2024-02-23T09:49:38;98687.19;;;8.70;42.69
64053;BME280;50299;49.524;8.536;2024-02-23T09:52:10;98683.03;;;8.96;43.95
64053;BME280;50299;49.524;8.536;2024-02-23T09:54:37;98693.66;;;9.13;43.54
64053;BME280;50299;49.524;8.536;2024-02-23T09:57:08;98684.66;;;9.35;43.22
64053;BME280;50299;49.524;8.536;2024-02-23T09:59:35;98692.16;;;9.58;41.80
64053;BME280;50299;49.524;8.536;2024-02-23T10:02:07;98687.63;;;9.46;41.93
64053;BME280;50299;49.524;8.536;2024-02-23T10:04:35;98690.00;;;9.28;42.72
64053;BME280;50299;49.524;8.536;2024-02-23T10:07:02;98650.91;;;9.03;43.21
64053;BME280;50299;49.524;8.536;2024-02-23T10:09:31;98689.53;;;8.36;43.64
64053;BME280;50299;49.524;8.536;2024-02-23T10:11:57;98686.59;;;8.29;45.32
64053;BME280;50299;49.524;8.536;2024-02-23T10:14:24;98688.06;;;8.58;46.04
64053;BME280;50299;49.524;8.536;2024-02-23T10:16:51;98702.59;;;8.91;45.29
64053;BME280;50299;49.524;8.536;2024-02-23T10:19:21;98695.97;;;9.11;42.39
64053;BME280;50299;49.524;8.536;2024-02-23T10:21:48;98692.19;;;9.19;43.06
64053;BME280;50299;49.524;8.536;2024-02-23T10:24:17;98684.19;;;8.59;43.62
64053;BME280;50299;49.524;8.536;2024-02-23T10:26:44;98691.34;;;8.80;44.99
64053;BME280;50299;49.524;8.536;2024-02-23T10:29:11;98680.50;;;9.06;44.93
64053;BME280;50299;49.524;8.536;2024-02-23T10:31:38;98683.84;;;9.35;45.55
64053;BME280;50299;49.524;8.536;2024-02-23T10:34:09;98686.75;;;9.23;42.32
64053;BME280;50299;49.524;8.536;2024-02-23T10:36:41;98685.19;;;8.86;43.03
64053;BME280;50299;49.524;8.536;2024-02-23T10:39:15;98686.91;;;9.10;45.22
64053;BME280;50299;49.524;8.536;2024-02-23T10:41:47;98682.47;;;9.45;42.62
64053;BME280;50299;49.524;8.536;2024-02-23T10:44:16;98680.41;;;9.42;42.62
64053;BME280;50299;49.524;8.536;2024-02-23T10:46:43;98679.75;;;9.68;43.49
64053;BME280;50299;49.524;8.536;2024-02-23T10:49:10;98682.00;;;9.81;41.81
64053;BME280;50299;49.524;8.536;2024-02-23T10:51:39;98678.91;;;9.86;41.72
64053;BME280;50299;49.524;8.536;2024-02-23T10:54:06;98675.88;;;9.72;41.87
64053;BME280;50299;49.524;8.536;2024-02-23T10:56:33;98675.91;;;9.33;42.92
64053;BME280;50299;49.524;8.536;2024-02-23T10:59:00;98676.53;;;9.43;44.82
64053;BME280;50299;49.524;8.536;2024-02-23T11:01:27;98682.44;;;9.64;43.77
64053;BME280;50299;49.524;8.536;2024-02-23T11:03:54;98682.41;;;9.22;42.51
64053;BME280;50299;49.524;8.536;2024-02-23T11:06:27;98679.94;;;8.97;42.62
64053;BME280;50299;49.524;8.536;2024-02-23T11:09:04;98680.72;;;8.98;43.65
64053;BME280;50299;49.524;8.536;2024-02-23T11:11:32;98688.25;;;8.81;44.74
64053;BME280;50299;49.524;8.536;2024-02-23T11:14:02;98677.16;;;8.62;43.70
64053;BME280;50299;49.524;8.536;2024-02-23T11:16:31;98671.25;;;8.79;44.36
64053;BME280;50299;49.524;8.536;2024-02-23T11:19:03;98667.94;;;8.90;45.06
64053;BME280;50299;49.524;8.536;2024-02-23T11:21:34;98671.25;;;8.79;44.66
64053;BME280;50299;49.524;8.536;2024-02-23T11:24:05;98671.72;;;8.14;44.28
64053;BME280;50299;49.524;8.536;2024-02-23T11:26:32;98666.47;;;8.09;45.61
64053;BME280;50299;49.524;8.536;2024-02-23T11:29:10;98661.72;;;7.62;44.85
64053;BME280;50299;49.524;8.536;2024-02-23T11:31:37;98659.97;;;7.70;46.42
64053;BME280;50299;49.524;8.536;2024-02-23T11:34:10;98655.56;;;7.81;46.83
64053;BME280;50299;49.524;8.536;2024-02-23T11:36:38;98654.94;;;8.04;46.14
64053;BME280;50299;49.524;8.536;2024-02-23T11:39:05;98659.53;;;8.31;47.46
64053;BME280;50299;49.524;8.536;2024-02-23T11:41:32;98651.91;;;8.09;45.38
64053;BME280;50299;49.524;8.536;2024-02-23T11:43:58;98648.88;;;8.14;45.31
64053;BME280;50299;49.524;8.536;2024-02-23T11:46:25;98651.06;;;8.40;46.55
64053;BME280;50299;49.524;8.536;2024-02-23T11:48:51;98662.06;;;8.56;45.56
64053;BME280;50299;49.524;8.536;2024-02-23T11:51:22;98655.09;;;8.11;44.79
64053;BME280;50299;49.524;8.536;2024-02-23T11:53:55;98657.13;;;8.30;45.96
64053;BME280;50299;49.524;8.536;2024-02-23T11:56:24;98652.72;;;8.60;45.36
64053;BME280;50299;49.524;8.536;2024-02-23T11:58:50;98654.03;;;8.31;44.05
64053;BME280;50299;49.524;8.536;2024-02-23T12:01:17;98654.84;;;8.00;45.15
64053;BME280;50299;49.524;8.536;2024-02-23T12:03:43;98660.69;;;7.67;44.39
64053;BME280;50299;49.524;8.536;2024-02-23T12:06:11;98653.31;;;7.71;45.24
64053;BME280;50299;49.524;8.536;2024-02-23T12:08:38;98658.91;;;7.47;45.21
64053;BME280;50299;49.524;8.536;2024-02-23T12:11:05;98657.94;;;7.39;49.01
64053;BME280;50299;49.524;8.536;2024-02-23T12:13:35;98647.56;;;7.32;49.58
64053;BME280;50299;49.524;8.536;2024-02-23T12:16:02;98645.28;;;7.22;49.68
64053;BME280;50299;49.524;8.536;2024-02-23T12:18:29;98643.59;;;6.89;49.67
64053;BME280;50299;49.524;8.536;2024-02-23T12:21:05;98643.22;;;7.03;49.41
64053;BME280;50299;49.524;8.536;2024-02-23T12:23:43;98633.66;;;7.13;48.59
64053;BME280;50299;49.524;8.536;2024-02-23T12:26:12;98640.34;;;7.56;47.55
64053;BME280;50299;49.524;8.536;2024-02-23T12:28:40;98640.28;;;7.84;46.45
64053;BME280;50299;49.524;8.536;2024-02-23T12:31:07;98638.84;;;8.06;47.17
64053;BME280;50299;49.524;8.536;2024-02-23T12:33:35;98646.47;;;7.81;46.62
64053;BME280;50299;49.524;8.536;2024-02-23T12:36:03;98665.81;;;7.53;46.43
64053;BME280;50299;49.524;8.536;2024-02-23T12:38:31;98671.84;;;6.90;50.72
64053;BME280;50299;49.524;8.536;2024-02-23T12:40:59;98645.88;;;6.23;55.11
64053;BME280;50299;49.524;8.536;2024-02-23T12:43:29;98643.00;;;6.44;60.12
64053;BME280;50299;49.524;8.536;2024-02-23T12:45:56;98648.13;;;6.98;60.14
64053;BME280;50299;49.524;8.536;2024-02-23T12:48:23;98642.28;;;7.55;58.31
64053;BME280;50299;49.524;8.536;2024-02-23T12:50:50;98648.34;;;7.93;56.22
64053;BME280;50299;49.524;8.536;2024-02-23T12:53:37;98642.66;;;8.33;52.82
64053;BME280;50299;49.524;8.536;2024-02-23T12:56:07;98645.75;;;8.31;50.72
64053;BME280;50299;49.524;8.536;2024-02-23T12:58:35;98648.94;;;8.33;48.94
64053;BME280;50299;49.524;8.536;2024-02-23T13:01:02;98643.03;;;8.16;47.07
64053;BME280;50299;49.524;8.536;2024-02-23T13:03:28;98640.25;;;8.31;48.45
64053;BME280;50299;49.524;8.536;2024-02-23T13:05:56;98638.00;;;8.53;50.20
64053;BME280;50299;49.524;8.536;2024-02-23T13:08:26;98629.72;;;8.53;49.15
64053;BME280;50299;49.524;8.536;2024-02-23T13:10:53;98632.63;;;8.95;47.81
64053;BME280;50299;49.524;8.536;2024-02-23T13:13:23;98636.31;;;8.83;48.41